sensor_id;sensor_type;location;lat;lon;timestamp;P1;durP1;ratioP1;P2;durP2;ratioP2
15194;SDS011;7698;42.478;23.756;2023-02-01T00:00:31;3.43;;;2.73;;
15194;SDS011;7698;42.478;23.756;2023-02-01T00:02:59;4.15;;;2.40;;
15194;SDS011;7698;42.478;23.756;2023-02-01T00:05:26;2.83;;;2.57;;
15194;SDS011;7698;42.478;23.756;2023-02-01T00:07:53;1.70;;;1.60;;
15194;SDS011;7698;42.478;23.756;2023-02-01T00:10:20;2.40;;;2.20;;
15194;SDS011;7698;42.478;23.756;2023-02-01T00:12:46;2.50;;;2.30;;
15194;SDS011;7698;42.478;23.756;2023-02-01T00:15:15;2.80;;;2.60;;
15194;SDS011;7698;42.478;23.756;2023-02-01T00:17:42;3.23;;;2.90;;
15194;SDS011;7698;42.478;23.756;2023-02-01T00:20:09;2.60;;;2.40;;
15194;SDS011;7698;42.478;23.756;2023-02-01T00:22:36;2.60;;;2.40;;
15194;SDS011;7698;42.478;23.756;2023-02-01T00:25:03;3.53;;;3.10;;
15194;SDS011;7698;42.478;23.756;2023-02-01T00:27:31;3.27;;;3.00;;
15194;SDS011;7698;42.478;23.756;2023-02-01T00:29:58;3.33;;;3.03;;
15194;SDS011;7698;42.478;23.756;2023-02-01T00:32:26;2.67;;;2.47;;
15194;SDS011;7698;42.478;23.756;2023-02-01T00:34:53;3.47;;;3.27;;
15194;SDS011;7698;42.478;23.756;2023-02-01T00:37:19;3.33;;;3.03;;
15194;SDS011;7698;42.478;23.756;2023-02-01T00:39:46;4.20;;;3.50;;
15194;SDS011;7698;42.478;23.756;2023-02-01T00:42:13;3.27;;;2.97;;
15194;SDS011;7698;42.478;23.756;2023-02-01T00:44:40;4.23;;;3.23;;
15194;SDS011;7698;42.478;23.756;2023-02-01T00:47:06;4.07;;;3.77;;
15194;SDS011;7698;42.478;23.756;2023-02-01T00:49:34;3.40;;;3.17;;
15194;SDS011;7698;42.478;23.756;2023-02-01T00:52:01;4.43;;;4.03;;
15194;SDS011;7698;42.478;23.756;2023-02-01T00:54:28;3.70;;;3.10;;
15194;SDS011;7698;42.478;23.756;2023-02-01T00:56:55;4.07;;;3.50;;
15194;SDS011;7698;42.478;23.756;2023-02-01T00:59:22;3.47;;;3.17;;
15194;SDS011;7698;42.478;23.756;2023-02-01T01:01:49;4.83;;;2.77;;
15194;SDS011;7698;42.478;23.756;2023-02-01T01:04:15;4.30;;;3.27;;
15194;SDS011;7698;42.478;23.756;2023-02-01T01:06:44;4.53;;;4.00;;
15194;SDS011;7698;42.478;23.756;2023-02-01T01:09:10;3.63;;;3.33;;
15194;SDS011;7698;42.478;23.756;2023-02-01T01:11:38;3.67;;;3.37;;
15194;SDS011;7698;42.478;23.756;2023-02-01T01:14:05;6.17;;;3.83;;
15194;SDS011;7698;42.478;23.756;2023-02-01T01:16:33;4.17;;;3.77;;
15194;SDS011;7698;42.478;23.756;2023-02-01T01:19:00;3.53;;;3.23;;
15194;SDS011;7698;42.478;23.756;2023-02-01T01:21:27;4.30;;;3.53;;
15194;SDS011;7698;42.478;23.756;2023-02-01T01:23:55;4.73;;;4.27;;
15194;SDS011;7698;42.478;23.756;2023-02-01T01:26:23;3.60;;;3.30;;
15194;SDS011;7698;42.478;23.756;2023-02-01T01:28:51;3.30;;;3.00;;
15194;SDS011;7698;42.478;23.756;2023-02-01T01:31:19;4.40;;;4.10;;
15194;SDS011;7698;42.478;23.756;2023-02-01T01:33:50;5.63;;;3.57;;
15194;SDS011;7698;42.478;23.756;2023-02-01T01:36:18;4.50;;;4.10;;
15194;SDS011;7698;42.478;23.756;2023-02-01T01:38:46;4.00;;;3.70;;
15194;SDS011;7698;42.478;23.756;2023-02-01T01:41:15;3.40;;;3.10;;
15194;SDS011;7698;42.478;23.756;2023-02-01T01:43:47;4.63;;;3.50;;
15194;SDS011;7698;42.478;23.756;2023-02-01T01:46:16;2.67;;;2.47;;
15194;SDS011;7698;42.478;23.756;2023-02-01T01:48:44;3.30;;;3.00;;
15194;SDS011;7698;42.478;23.756;2023-02-01T01:51:14;4.03;;;3.63;;
15194;SDS011;7698;42.478;23.756;2023-02-01T01:53:45;3.50;;;3.20;;
15194;SDS011;7698;42.478;23.756;2023-02-01T01:56:17;3.30;;;3.00;;
15194;SDS011;7698;42.478;23.756;2023-02-01T01:58:44;3.40;;;3.10;;
15194;SDS011;7698;42.478;23.756;2023-02-01T02:01:11;3.87;;;2.93;;
15194;SDS011;7698;42.478;23.756;2023-02-01T02:03:39;3.00;;;2.70;;
15194;SDS011;7698;42.478;23.756;2023-02-01T02:06:11;3.37;;;3.00;;
15194;SDS011;7698;42.478;23.756;2023-02-01T02:08:41;4.37;;;3.07;;
15194;SDS011;7698;42.478;23.756;2023-02-01T02:11:09;2.77;;;2.57;;
15194;SDS011;7698;42.478;23.756;2023-02-01T02:13:40;3.57;;;2.73;;
15194;SDS011;7698;42.478;23.756;2023-02-01T02:19:03;2.73;;;2.53;;
15194;SDS011;7698;42.478;23.756;2023-02-01T02:21:56;2.60;;;2.40;;
15194;SDS011;7698;42.478;23.756;2023-02-01T02:24:50;3.07;;;2.77;;
15194;SDS011;7698;42.478;23.756;2023-02-01T02:27:32;3.13;;;2.23;;
15194;SDS011;7698;42.478;23.756;2023-02-01T02:35:59;2.20;;;2.00;;
15194;SDS011;7698;42.478;23.756;2023-02-01T02:38:31;2.80;;;2.60;;
15194;SDS011;7698;42.478;23.756;2023-02-01T02:41:09;2.93;;;2.30;;
15194;SDS011;7698;42.478;23.756;2023-02-01T02:44:01;2.50;;;2.30;;
15194;SDS011;7698;42.478;23.756;2023-02-01T02:46:53;3.63;;;2.93;;
15194;SDS011;7698;42.478;23.756;2023-02-01T02:49:47;3.60;;;2.97;;
15194;SDS011;7698;42.478;23.756;2023-02-01T02:52:32;3.27;;;2.47;;
15194;SDS011;7698;42.478;23.756;2023-02-01T02:55:23;3.00;;;2.53;;
15194;SDS011;7698;42.478;23.756;2023-02-01T02:57:53;4.57;;;3.20;;
15194;SDS011;7698;42.478;23.756;2023-02-01T03:00:39;2.53;;;2.33;;
15194;SDS011;7698;42.478;23.756;2023-02-01T03:03:25;3.80;;;2.90;;
15194;SDS011;7698;42.478;23.756;2023-02-01T03:06:13;2.90;;;2.60;;
15194;SDS011;7698;42.478;23.756;2023-02-01T03:08:42;4.90;;;3.13;;
15194;SDS011;7698;42.478;23.756;2023-02-01T03:11:11;3.40;;;2.90;;
15194;SDS011;7698;42.478;23.756;2023-02-01T03:13:41;2.97;;;2.60;;
15194;SDS011;7698;42.478;23.756;2023-02-01T03:16:12;2.30;;;2.13;;
15194;SDS011;7698;42.478;23.756;2023-02-01T03:18:44;3.03;;;2.17;;
15194;SDS011;7698;42.478;23.756;2023-02-01T03:21:17;3.80;;;2.40;;
15194;SDS011;7698;42.478;23.756;2023-02-01T03:23:47;2.73;;;2.53;;
15194;SDS011;7698;42.478;23.756;2023-02-01T03:26:18;1.97;;;1.83;;
15194;SDS011;7698;42.478;23.756;2023-02-01T03:28:48;2.87;;;2.43;;
15194;SDS011;7698;42.478;23.756;2023-02-01T03:31:19;2.60;;;2.17;;
15194;SDS011;7698;42.478;23.756;2023-02-01T03:33:46;4.07;;;2.43;;
15194;SDS011;7698;42.478;23.756;2023-02-01T03:36:15;3.07;;;2.33;;
15194;SDS011;7698;42.478;23.756;2023-02-01T03:41:46;2.40;;;2.20;;
15194;SDS011;7698;42.478;23.756;2023-02-01T03:44:19;2.57;;;2.10;;
15194;SDS011;7698;42.478;23.756;2023-02-01T03:46:51;2.57;;;2.33;;
15194;SDS011;7698;42.478;23.756;2023-02-01T03:49:22;2.73;;;2.00;;
15194;SDS011;7698;42.478;23.756;2023-02-01T03:51:55;1.90;;;1.80;;
15194;SDS011;7698;42.478;23.756;2023-02-01T03:54:24;2.90;;;2.07;;
15194;SDS011;7698;42.478;23.756;2023-02-01T03:56:54;2.47;;;2.27;;
15194;SDS011;7698;42.478;23.756;2023-02-01T03:59:25;2.43;;;1.73;;
15194;SDS011;7698;42.478;23.756;2023-02-01T04:01:52;2.13;;;1.93;;
15194;SDS011;7698;42.478;23.756;2023-02-01T04:04:19;1.80;;;1.70;;
15194;SDS011;7698;42.478;23.756;2023-02-01T04:06:46;2.03;;;1.70;;
15194;SDS011;7698;42.478;23.756;2023-02-01T04:09:14;2.70;;;1.67;;
15194;SDS011;7698;42.478;23.756;2023-02-01T04:11:41;1.53;;;1.43;;
15194;SDS011;7698;42.478;23.756;2023-02-01T04:14:09;1.57;;;1.40;;
15194;SDS011;7698;42.478;23.756;2023-02-01T04:16:36;2.07;;;1.87;;
15194;SDS011;7698;42.478;23.756;2023-02-01T04:19:02;1.83;;;1.50;;
15194;SDS011;7698;42.478;23.756;2023-02-01T04:21:29;2.00;;;1.20;;
15194;SDS011;7698;42.478;23.756;2023-02-01T04:23:56;2.97;;;1.50;;
15194;SDS011;7698;42.478;23.756;2023-02-01T04:26:24;1.83;;;1.40;;
15194;SDS011;7698;42.478;23.756;2023-02-01T04:28:51;3.00;;;1.77;;
15194;SDS011;7698;42.478;23.756;2023-02-01T04:31:18;2.53;;;1.90;;
15194;SDS011;7698;42.478;23.756;2023-02-01T04:33:50;2.10;;;1.90;;
15194;SDS011;7698;42.478;23.756;2023-02-01T04:36:17;1.40;;;1.30;;
15194;SDS011;7698;42.478;23.756;2023-02-01T04:38:46;2.40;;;1.50;;
15194;SDS011;7698;42.478;23.756;2023-02-01T04:41:13;1.57;;;1.47;;
15194;SDS011;7698;42.478;23.756;2023-02-01T04:43:42;2.70;;;1.40;;
15194;SDS011;7698;42.478;23.756;2023-02-01T04:46:08;2.43;;;1.37;;
15194;SDS011;7698;42.478;23.756;2023-02-01T04:48:35;1.90;;;1.63;;
15194;SDS011;7698;42.478;23.756;2023-02-01T04:51:02;1.20;;;1.10;;
15194;SDS011;7698;42.478;23.756;2023-02-01T04:53:29;1.20;;;1.20;;
15194;SDS011;7698;42.478;23.756;2023-02-01T04:55:56;3.47;;;2.10;;
15194;SDS011;7698;42.478;23.756;2023-02-01T04:58:22;1.30;;;1.20;;
15194;SDS011;7698;42.478;23.756;2023-02-01T05:00:51;1.93;;;1.67;;
15194;SDS011;7698;42.478;23.756;2023-02-01T05:03:17;1.87;;;1.50;;
15194;SDS011;7698;42.478;23.756;2023-02-01T05:05:44;1.73;;;1.60;;
15194;SDS011;7698;42.478;23.756;2023-02-01T05:08:13;2.00;;;1.80;;
15194;SDS011;7698;42.478;23.756;2023-02-01T05:10:40;2.53;;;1.37;;
15194;SDS011;7698;42.478;23.756;2023-02-01T05:13:07;1.80;;;1.40;;
15194;SDS011;7698;42.478;23.756;2023-02-01T05:15:53;2.00;;;1.80;;
15194;SDS011;7698;42.478;23.756;2023-02-01T05:18:20;2.77;;;2.13;;
15194;SDS011;7698;42.478;23.756;2023-02-01T05:20:47;1.60;;;1.50;;
15194;SDS011;7698;42.478;23.756;2023-02-01T05:23:14;3.30;;;1.80;;
15194;SDS011;7698;42.478;23.756;2023-02-01T05:25:40;2.50;;;1.93;;
15194;SDS011;7698;42.478;23.756;2023-02-01T05:28:07;2.17;;;1.93;;
15194;SDS011;7698;42.478;23.756;2023-02-01T05:30:34;2.20;;;2.00;;
15194;SDS011;7698;42.478;23.756;2023-02-01T05:33:03;3.57;;;2.30;;
15194;SDS011;7698;42.478;23.756;2023-02-01T05:35:30;2.80;;;1.50;;
15194;SDS011;7698;42.478;23.756;2023-02-01T05:37:57;2.53;;;2.20;;
15194;SDS011;7698;42.478;23.756;2023-02-01T05:40:23;2.50;;;2.30;;
15194;SDS011;7698;42.478;23.756;2023-02-01T05:42:50;1.70;;;1.60;;
15194;SDS011;7698;42.478;23.756;2023-02-01T05:45:17;2.00;;;1.90;;
15194;SDS011;7698;42.478;23.756;2023-02-01T05:47:44;3.67;;;2.03;;
15194;SDS011;7698;42.478;23.756;2023-02-01T05:50:12;2.30;;;2.10;;
15194;SDS011;7698;42.478;23.756;2023-02-01T05:52:40;2.03;;;1.87;;
15194;SDS011;7698;42.478;23.756;2023-02-01T05:55:07;2.17;;;2.07;;
15194;SDS011;7698;42.478;23.756;2023-02-01T05:57:34;2.33;;;2.13;;
15194;SDS011;7698;42.478;23.756;2023-02-01T06:00:01;2.67;;;2.43;;
15194;SDS011;7698;42.478;23.756;2023-02-01T06:02:29;5.20;;;2.90;;
15194;SDS011;7698;42.478;23.756;2023-02-01T06:04:56;2.60;;;2.40;;
15194;SDS011;7698;42.478;23.756;2023-02-01T06:07:24;2.20;;;2.00;;
15194;SDS011;7698;42.478;23.756;2023-02-01T06:09:51;2.97;;;2.17;;
15194;SDS011;7698;42.478;23.756;2023-02-01T06:12:18;3.13;;;2.77;;
15194;SDS011;7698;42.478;23.756;2023-02-01T06:14:44;3.57;;;2.50;;
15194;SDS011;7698;42.478;23.756;2023-02-01T06:17:11;2.60;;;2.40;;
15194;SDS011;7698;42.478;23.756;2023-02-01T06:19:38;2.73;;;2.53;;
15194;SDS011;7698;42.478;23.756;2023-02-01T06:22:06;3.73;;;2.70;;
15194;SDS011;7698;42.478;23.756;2023-02-01T06:24:34;4.33;;;3.00;;
15194;SDS011;7698;42.478;23.756;2023-02-01T06:27:01;2.60;;;2.40;;
15194;SDS011;7698;42.478;23.756;2023-02-01T06:29:28;2.80;;;2.27;;
15194;SDS011;7698;42.478;23.756;2023-02-01T06:31:54;3.43;;;3.13;;
15194;SDS011;7698;42.478;23.756;2023-02-01T06:34:21;3.77;;;2.80;;
15194;SDS011;7698;42.478;23.756;2023-02-01T06:36:48;2.77;;;2.50;;
15194;SDS011;7698;42.478;23.756;2023-02-01T06:39:15;3.53;;;2.80;;
15194;SDS011;7698;42.478;23.756;2023-02-01T06:41:45;3.20;;;2.77;;
15194;SDS011;7698;42.478;23.756;2023-02-01T06:44:12;4.37;;;3.00;;
15194;SDS011;7698;42.478;23.756;2023-02-01T06:46:39;5.90;;;3.20;;
15194;SDS011;7698;42.478;23.756;2023-02-01T06:49:06;5.20;;;2.63;;
15194;SDS011;7698;42.478;23.756;2023-02-01T06:51:33;2.90;;;2.53;;
15194;SDS011;7698;42.478;23.756;2023-02-01T06:54:00;4.23;;;2.87;;
15194;SDS011;7698;42.478;23.756;2023-02-01T06:56:27;2.40;;;2.20;;
15194;SDS011;7698;42.478;23.756;2023-02-01T06:58:57;3.60;;;2.50;;
15194;SDS011;7698;42.478;23.756;2023-02-01T07:01:25;3.00;;;2.80;;
15194;SDS011;7698;42.478;23.756;2023-02-01T07:03:52;3.60;;;2.20;;
15194;SDS011;7698;42.478;23.756;2023-02-01T07:06:19;2.70;;;2.17;;
15194;SDS011;7698;42.478;23.756;2023-02-01T07:08:46;3.15;;;2.08;;
15194;SDS011;7698;42.478;23.756;2023-02-01T07:11:14;2.30;;;2.10;;
15194;SDS011;7698;42.478;23.756;2023-02-01T07:13:42;2.40;;;2.20;;
15194;SDS011;7698;42.478;23.756;2023-02-01T07:16:11;2.10;;;1.70;;
15194;SDS011;7698;42.478;23.756;2023-02-01T07:18:40;2.47;;;1.90;;
15194;SDS011;7698;42.478;23.756;2023-02-01T07:21:07;3.50;;;2.37;;
15194;SDS011;7698;42.478;23.756;2023-02-01T07:23:34;3.93;;;2.40;;
15194;SDS011;7698;42.478;23.756;2023-02-01T07:26:02;4.17;;;2.50;;
15194;SDS011;7698;42.478;23.756;2023-02-01T07:28:30;3.38;;;2.50;;
15194;SDS011;7698;42.478;23.756;2023-02-01T07:31:02;2.77;;;2.57;;
15194;SDS011;7698;42.478;23.756;2023-02-01T07:33:30;2.28;;;2.10;;
15194;SDS011;7698;42.478;23.756;2023-02-01T07:35:59;3.10;;;2.20;;
15194;SDS011;7698;42.478;23.756;2023-02-01T07:38:27;2.83;;;2.27;;
15194;SDS011;7698;42.478;23.756;2023-02-01T07:40:56;2.95;;;1.88;;
15194;SDS011;7698;42.478;23.756;2023-02-01T07:43:24;2.70;;;2.50;;
15194;SDS011;7698;42.478;23.756;2023-02-01T07:45:52;3.40;;;2.63;;
15194;SDS011;7698;42.478;23.756;2023-02-01T07:48:19;2.70;;;2.00;;
15194;SDS011;7698;42.478;23.756;2023-02-01T07:50:48;2.85;;;1.80;;
15194;SDS011;7698;42.478;23.756;2023-02-01T07:53:22;1.88;;;1.75;;
15194;SDS011;7698;42.478;23.756;2023-02-01T07:55:49;1.77;;;1.47;;
15194;SDS011;7698;42.478;23.756;2023-02-01T07:58:16;3.87;;;2.23;;
15194;SDS011;7698;42.478;23.756;2023-02-01T08:00:43;2.33;;;2.10;;
15194;SDS011;7698;42.478;23.756;2023-02-01T08:03:27;4.47;;;2.57;;
15194;SDS011;7698;42.478;23.756;2023-02-01T08:05:55;3.60;;;2.30;;
15194;SDS011;7698;42.478;23.756;2023-02-01T08:08:22;2.80;;;2.03;;
15194;SDS011;7698;42.478;23.756;2023-02-01T08:10:49;2.58;;;1.73;;
15194;SDS011;7698;42.478;23.756;2023-02-01T08:13:16;1.77;;;1.57;;
15194;SDS011;7698;42.478;23.756;2023-02-01T08:15:43;2.30;;;1.60;;
15194;SDS011;7698;42.478;23.756;2023-02-01T08:18:10;2.87;;;1.87;;
15194;SDS011;7698;42.478;23.756;2023-02-01T08:20:41;2.30;;;1.97;;
15194;SDS011;7698;42.478;23.756;2023-02-01T08:23:12;1.85;;;1.35;;
15194;SDS011;7698;42.478;23.756;2023-02-01T08:25:38;2.43;;;1.93;;
15194;SDS011;7698;42.478;23.756;2023-02-01T08:28:05;2.25;;;1.58;;
15194;SDS011;7698;42.478;23.756;2023-02-01T08:30:33;1.60;;;1.50;;
15194;SDS011;7698;42.478;23.756;2023-02-01T08:33:00;4.67;;;2.27;;
15194;SDS011;7698;42.478;23.756;2023-02-01T08:35:27;4.40;;;1.98;;
15194;SDS011;7698;42.478;23.756;2023-02-01T08:37:54;2.47;;;2.00;;
15194;SDS011;7698;42.478;23.756;2023-02-01T08:40:22;3.38;;;1.83;;
15194;SDS011;7698;42.478;23.756;2023-02-01T08:42:49;3.07;;;2.13;;
15194;SDS011;7698;42.478;23.756;2023-02-01T08:45:19;2.78;;;2.08;;
15194;SDS011;7698;42.478;23.756;2023-02-01T08:47:49;3.55;;;2.30;;
15194;SDS011;7698;42.478;23.756;2023-02-01T08:50:16;2.40;;;2.20;;
15194;SDS011;7698;42.478;23.756;2023-02-01T08:52:44;4.33;;;2.20;;
15194;SDS011;7698;42.478;23.756;2023-02-01T08:55:11;2.90;;;1.75;;
15194;SDS011;7698;42.478;23.756;2023-02-01T08:57:40;1.88;;;1.70;;
15194;SDS011;7698;42.478;23.756;2023-02-01T09:00:08;3.00;;;2.33;;
15194;SDS011;7698;42.478;23.756;2023-02-01T09:02:38;3.33;;;1.77;;
15194;SDS011;7698;42.478;23.756;2023-02-01T09:05:05;2.70;;;2.22;;
15194;SDS011;7698;42.478;23.756;2023-02-01T09:07:33;2.50;;;1.45;;
15194;SDS011;7698;42.478;23.756;2023-02-01T09:10:00;2.55;;;2.10;;
15194;SDS011;7698;42.478;23.756;2023-02-01T09:12:28;3.03;;;2.13;;
15194;SDS011;7698;42.478;23.756;2023-02-01T09:14:57;2.03;;;1.80;;
15194;SDS011;7698;42.478;23.756;2023-02-01T09:17:25;3.08;;;2.22;;
15194;SDS011;7698;42.478;23.756;2023-02-01T09:19:52;4.15;;;2.00;;
15194;SDS011;7698;42.478;23.756;2023-02-01T09:22:19;2.10;;;1.85;;
15194;SDS011;7698;42.478;23.756;2023-02-01T09:24:46;1.63;;;1.52;;
15194;SDS011;7698;42.478;23.756;2023-02-01T09:27:13;2.10;;;1.90;;
15194;SDS011;7698;42.478;23.756;2023-02-01T09:29:40;3.83;;;1.60;;
15194;SDS011;7698;42.478;23.756;2023-02-01T09:32:09;1.83;;;1.50;;
15194;SDS011;7698;42.478;23.756;2023-02-01T09:34:36;1.52;;;1.40;;
15194;SDS011;7698;42.478;23.756;2023-02-01T09:37:03;2.55;;;1.50;;
15194;SDS011;7698;42.478;23.756;2023-02-01T09:39:30;2.60;;;1.50;;
15194;SDS011;7698;42.478;23.756;2023-02-01T09:41:59;2.92;;;1.70;;
15194;SDS011;7698;42.478;23.756;2023-02-01T09:44:40;2.63;;;1.70;;
15194;SDS011;7698;42.478;23.756;2023-02-01T09:47:17;2.58;;;1.48;;
15194;SDS011;7698;42.478;23.756;2023-02-01T09:49:48;2.40;;;1.80;;
15194;SDS011;7698;42.478;23.756;2023-02-01T09:52:24;2.80;;;1.80;;
15194;SDS011;7698;42.478;23.756;2023-02-01T09:54:54;2.22;;;1.77;;
15194;SDS011;7698;42.478;23.756;2023-02-01T09:57:28;1.55;;;1.40;;
15194;SDS011;7698;42.478;23.756;2023-02-01T10:00:07;1.90;;;1.70;;
15194;SDS011;7698;42.478;23.756;2023-02-01T10:02:44;2.95;;;1.85;;
15194;SDS011;7698;42.478;23.756;2023-02-01T10:05:12;2.55;;;1.70;;
15194;SDS011;7698;42.478;23.756;2023-02-01T10:07:42;4.60;;;2.40;;
15194;SDS011;7698;42.478;23.756;2023-02-01T10:10:17;2.53;;;1.60;;
15194;SDS011;7698;42.478;23.756;2023-02-01T10:12:57;2.13;;;1.67;;
15194;SDS011;7698;42.478;23.756;2023-02-01T10:15:40;4.00;;;2.25;;
15194;SDS011;7698;42.478;23.756;2023-02-01T10:18:23;3.30;;;3.00;;
15194;SDS011;7698;42.478;23.756;2023-02-01T10:21:02;3.13;;;2.03;;
15194;SDS011;7698;42.478;23.756;2023-02-01T10:23:42;3.38;;;2.08;;
15194;SDS011;7698;42.478;23.756;2023-02-01T10:26:20;3.72;;;2.20;;
15194;SDS011;7698;42.478;23.756;2023-02-01T10:28:49;3.53;;;1.75;;
15194;SDS011;7698;42.478;23.756;2023-02-01T10:31:18;3.20;;;2.10;;
15194;SDS011;7698;42.478;23.756;2023-02-01T10:33:49;1.60;;;1.50;;
15194;SDS011;7698;42.478;23.756;2023-02-01T10:36:20;3.03;;;1.88;;
15194;SDS011;7698;42.478;23.756;2023-02-01T10:38:50;2.42;;;2.10;;
15194;SDS011;7698;42.478;23.756;2023-02-01T10:41:18;2.55;;;1.73;;
15194;SDS011;7698;42.478;23.756;2023-02-01T10:43:48;3.22;;;1.75;;
15194;SDS011;7698;42.478;23.756;2023-02-01T10:46:19;1.95;;;1.30;;
15194;SDS011;7698;42.478;23.756;2023-02-01T10:48:46;2.40;;;1.40;;
15194;SDS011;7698;42.478;23.756;2023-02-01T10:51:16;1.90;;;1.50;;
15194;SDS011;7698;42.478;23.756;2023-02-01T10:53:48;2.47;;;1.48;;
15194;SDS011;7698;42.478;23.756;2023-02-01T10:56:21;2.80;;;1.88;;
15194;SDS011;7698;42.478;23.756;2023-02-01T10:58:49;2.17;;;1.70;;
15194;SDS011;7698;42.478;23.756;2023-02-01T11:01:17;2.05;;;1.85;;
15194;SDS011;7698;42.478;23.756;2023-02-01T11:03:52;2.35;;;1.55;;
15194;SDS011;7698;42.478;23.756;2023-02-01T11:06:24;3.08;;;1.45;;
15194;SDS011;7698;42.478;23.756;2023-02-01T11:08:55;1.65;;;1.05;;
15194;SDS011;7698;42.478;23.756;2023-02-01T11:11:23;1.65;;;1.10;;
15194;SDS011;7698;42.478;23.756;2023-02-01T11:13:52;2.33;;;1.30;;
15194;SDS011;7698;42.478;23.756;2023-02-01T11:16:21;2.65;;;2.00;;
15194;SDS011;7698;42.478;23.756;2023-02-01T11:18:57;1.80;;;1.17;;
15194;SDS011;7698;42.478;23.756;2023-02-01T11:21:25;2.85;;;1.50;;
15194;SDS011;7698;42.478;23.756;2023-02-01T11:23:52;4.90;;;1.77;;
15194;SDS011;7698;42.478;23.756;2023-02-01T11:26:20;3.53;;;2.10;;
15194;SDS011;7698;42.478;23.756;2023-02-01T11:28:53;1.90;;;1.50;;
15194;SDS011;7698;42.478;23.756;2023-02-01T11:31:24;2.63;;;1.60;;
15194;SDS011;7698;42.478;23.756;2023-02-01T11:33:54;2.15;;;1.55;;
15194;SDS011;7698;42.478;23.756;2023-02-01T11:36:26;1.70;;;1.60;;
15194;SDS011;7698;42.478;23.756;2023-02-01T11:39:07;2.80;;;1.92;;
15194;SDS011;7698;42.478;23.756;2023-02-01T11:44:26;2.25;;;1.33;;
15194;SDS011;7698;42.478;23.756;2023-02-01T11:47:05;1.70;;;1.15;;
15194;SDS011;7698;42.478;23.756;2023-02-01T11:49:45;2.28;;;1.30;;
15194;SDS011;7698;42.478;23.756;2023-02-01T11:52:15;2.08;;;1.48;;
15194;SDS011;7698;42.478;23.756;2023-02-01T11:54:56;1.75;;;1.48;;
15194;SDS011;7698;42.478;23.756;2023-02-01T11:57:41;2.33;;;2.03;;
15194;SDS011;7698;42.478;23.756;2023-02-01T12:00:25;2.65;;;2.20;;
15194;SDS011;7698;42.478;23.756;2023-02-01T12:03:11;2.13;;;1.55;;
15194;SDS011;7698;42.478;23.756;2023-02-01T12:05:55;2.25;;;1.50;;
15194;SDS011;7698;42.478;23.756;2023-02-01T12:08:34;3.15;;;1.70;;
15194;SDS011;7698;42.478;23.756;2023-02-01T12:11:30;1.55;;;1.33;;
15194;SDS011;7698;42.478;23.756;2023-02-01T12:14:13;1.85;;;1.25;;
15194;SDS011;7698;42.478;23.756;2023-02-01T12:16:53;1.00;;;1.00;;
15194;SDS011;7698;42.478;23.756;2023-02-01T12:19:35;1.52;;;1.33;;
15194;SDS011;7698;42.478;23.756;2023-02-01T12:22:28;1.85;;;1.40;;
15194;SDS011;7698;42.478;23.756;2023-02-01T12:25:19;1.60;;;1.25;;
15194;SDS011;7698;42.478;23.756;2023-02-01T12:28:02;1.40;;;1.00;;
15194;SDS011;7698;42.478;23.756;2023-02-01T12:30:47;2.10;;;1.77;;
15194;SDS011;7698;42.478;23.756;2023-02-01T12:33:33;2.00;;;1.70;;
15194;SDS011;7698;42.478;23.756;2023-02-01T12:36:12;1.35;;;1.20;;
15194;SDS011;7698;42.478;23.756;2023-02-01T12:38:47;1.92;;;1.20;;
15194;SDS011;7698;42.478;23.756;2023-02-01T12:41:27;1.23;;;1.13;;
15194;SDS011;7698;42.478;23.756;2023-02-01T12:44:08;1.63;;;1.27;;
15194;SDS011;7698;42.478;23.756;2023-02-01T12:46:40;1.23;;;1.10;;
15194;SDS011;7698;42.478;23.756;2023-02-01T12:49:12;1.38;;;0.80;;
15194;SDS011;7698;42.478;23.756;2023-02-01T12:51:44;3.95;;;1.42;;
15194;SDS011;7698;42.478;23.756;2023-02-01T12:54:17;1.27;;;1.13;;
15194;SDS011;7698;42.478;23.756;2023-02-01T12:56:49;1.17;;;1.08;;
15194;SDS011;7698;42.478;23.756;2023-02-01T12:59:22;0.90;;;0.90;;
15194;SDS011;7698;42.478;23.756;2023-02-01T13:01:54;1.42;;;1.10;;
15194;SDS011;7698;42.478;23.756;2023-02-01T13:04:26;0.93;;;0.93;;
15194;SDS011;7698;42.478;23.756;2023-02-01T13:07:01;1.38;;;1.00;;
15194;SDS011;7698;42.478;23.756;2023-02-01T13:09:36;1.20;;;1.10;;
15194;SDS011;7698;42.478;23.756;2023-02-01T13:12:11;1.42;;;1.33;;
15194;SDS011;7698;42.478;23.756;2023-02-01T13:14:43;2.85;;;2.03;;
15194;SDS011;7698;42.478;23.756;2023-02-01T13:17:14;1.33;;;1.23;;
15194;SDS011;7698;42.478;23.756;2023-02-01T13:19:46;4.80;;;1.25;;
15194;SDS011;7698;42.478;23.756;2023-02-01T13:22:19;1.60;;;1.10;;
15194;SDS011;7698;42.478;23.756;2023-02-01T13:24:51;2.15;;;1.15;;
15194;SDS011;7698;42.478;23.756;2023-02-01T13:27:22;1.50;;;1.25;;
15194;SDS011;7698;42.478;23.756;2023-02-01T13:29:56;2.15;;;1.35;;
15194;SDS011;7698;42.478;23.756;2023-02-01T13:38:27;1.35;;;1.20;;
15194;SDS011;7698;42.478;23.756;2023-02-01T13:41:14;2.75;;;1.23;;
15194;SDS011;7698;42.478;23.756;2023-02-01T13:43:54;1.83;;;1.20;;
15194;SDS011;7698;42.478;23.756;2023-02-01T13:46:25;1.20;;;1.10;;
15194;SDS011;7698;42.478;23.756;2023-02-01T13:48:54;1.20;;;1.00;;
15194;SDS011;7698;42.478;23.756;2023-02-01T13:51:35;1.83;;;1.40;;
15194;SDS011;7698;42.478;23.756;2023-02-01T13:54:06;2.80;;;1.27;;
15194;SDS011;7698;42.478;23.756;2023-02-01T13:56:42;1.45;;;1.08;;
15194;SDS011;7698;42.478;23.756;2023-02-01T13:59:37;1.17;;;1.08;;
15194;SDS011;7698;42.478;23.756;2023-02-01T14:08:36;1.35;;;1.10;;
15194;SDS011;7698;42.478;23.756;2023-02-01T14:11:05;1.80;;;1.30;;
15194;SDS011;7698;42.478;23.756;2023-02-01T14:13:33;1.48;;;1.38;;
15194;SDS011;7698;42.478;23.756;2023-02-01T14:16:11;1.65;;;1.55;;
15194;SDS011;7698;42.478;23.756;2023-02-01T14:21:27;1.77;;;1.42;;
15194;SDS011;7698;42.478;23.756;2023-02-01T14:23:58;1.10;;;1.08;;
15194;SDS011;7698;42.478;23.756;2023-02-01T14:26:27;2.42;;;1.40;;
15194;SDS011;7698;42.478;23.756;2023-02-01T14:31:59;2.13;;;1.60;;
15194;SDS011;7698;42.478;23.756;2023-02-01T14:34:33;2.63;;;1.45;;
15194;SDS011;7698;42.478;23.756;2023-02-01T14:37:08;2.78;;;1.30;;
15194;SDS011;7698;42.478;23.756;2023-02-01T14:39:40;2.28;;;1.17;;
15194;SDS011;7698;42.478;23.756;2023-02-01T14:42:21;3.28;;;1.38;;
15194;SDS011;7698;42.478;23.756;2023-02-01T14:44:51;1.40;;;0.95;;
15194;SDS011;7698;42.478;23.756;2023-02-01T14:53:10;3.33;;;1.25;;
15194;SDS011;7698;42.478;23.756;2023-02-01T14:55:51;1.27;;;1.00;;
15194;SDS011;7698;42.478;23.756;2023-02-01T14:58:25;1.45;;;1.10;;
15194;SDS011;7698;42.478;23.756;2023-02-01T15:00:59;1.05;;;0.90;;
15194;SDS011;7698;42.478;23.756;2023-02-01T15:03:34;1.08;;;1.08;;
15194;SDS011;7698;42.478;23.756;2023-02-01T15:06:12;1.63;;;1.25;;
15194;SDS011;7698;42.478;23.756;2023-02-01T15:08:48;1.58;;;1.13;;
15194;SDS011;7698;42.478;23.756;2023-02-01T15:11:19;2.25;;;1.50;;
15194;SDS011;7698;42.478;23.756;2023-02-01T15:13:49;2.25;;;1.10;;
15194;SDS011;7698;42.478;23.756;2023-02-01T15:16:20;1.33;;;1.23;;
15194;SDS011;7698;42.478;23.756;2023-02-01T15:18:49;1.48;;;1.15;;
15194;SDS011;7698;42.478;23.756;2023-02-01T15:21:17;1.77;;;1.23;;
15194;SDS011;7698;42.478;23.756;2023-02-01T15:23:47;1.45;;;1.10;;
15194;SDS011;7698;42.478;23.756;2023-02-01T15:26:25;1.65;;;1.20;;
15194;SDS011;7698;42.478;23.756;2023-02-01T15:28:52;1.25;;;1.15;;
15194;SDS011;7698;42.478;23.756;2023-02-01T15:31:31;1.33;;;1.20;;
15194;SDS011;7698;42.478;23.756;2023-02-01T15:34:02;1.85;;;1.58;;
15194;SDS011;7698;42.478;23.756;2023-02-01T15:36:28;1.52;;;1.27;;
15194;SDS011;7698;42.478;23.756;2023-02-01T15:39:13;2.17;;;1.98;;
15194;SDS011;7698;42.478;23.756;2023-02-01T15:41:52;1.25;;;1.13;;
15194;SDS011;7698;42.478;23.756;2023-02-01T15:44:27;1.33;;;1.23;;
15194;SDS011;7698;42.478;23.756;2023-02-01T15:46:58;1.85;;;1.48;;
15194;SDS011;7698;42.478;23.756;2023-02-01T15:49:28;2.10;;;1.33;;